sensor_id;sensor_type;location;lat;lon;timestamp;pressure;altitude;pressure_sealevel;temperature;humidity
25658;BME280;13517;59.320;18.042;2022-11-20T00:02:17;101273.88;;;-0.88;100.00
25658;BME280;13517;59.320;18.042;2022-11-20T00:04:42;101250.09;;;-0.98;100.00
25658;BME280;13517;59.320;18.042;2022-11-20T00:07:08;101268.50;;;-0.80;100.00
25658;BME280;13517;59.320;18.042;2022-11-20T00:09:33;101247.38;;;-0.91;100.00
25658;BME280;13517;59.320;18.042;2022-11-20T00:11:58;101242.91;;;-0.86;100.00
25658;BME280;13517;59.320;18.042;2022-11-20T00:14:24;101262.31;;;-0.81;100.00
25658;BME280;13517;59.320;18.042;2022-11-20T00:16:49;101249.94;;;-0.85;100.00
25658;BME280;13517;59.320;18.042;2022-11-20T00:19:14;101239.34;;;-0.85;100.00
25658;BME280;13517;59.320;18.042;2022-11-20T00:21:40;101238.53;;;-0.90;100.00
25658;BME280;13517;59.320;18.042;2022-11-20T00:24:08;101253.50;;;-0.83;100.00
25658;BME280;13517;59.320;18.042;2022-11-20T00:26:34;101251.75;;;-0.87;100.00
25658;BME280;13517;59.320;18.042;2022-11-20T00:29:00;101244.69;;;-0.90;100.00
25658;BME280;13517;59.320;18.042;2022-11-20T00:31:27;101232.34;;;-0.92;100.00
25658;BME280;13517;59.320;18.042;2022-11-20T00:33:53;101241.13;;;-0.87;100.00
25658;BME280;13517;59.320;18.042;2022-11-20T00:36:20;101232.34;;;-0.92;100.00
25658;BME280;13517;59.320;18.042;2022-11-20T00:38:46;101254.44;;;-0.90;100.00
25658;BME280;13517;59.320;18.042;2022-11-20T00:41:14;101240.28;;;-0.92;100.00
25658;BME280;13517;59.320;18.042;2022-11-20T00:43:40;101240.38;;;-0.99;100.00
25658;BME280;13517;59.320;18.042;2022-11-20T00:46:09;101242.09;;;-0.96;100.00
25658;BME280;13517;59.320;18.042;2022-11-20T00:48:35;101229.72;;;-0.96;100.00
25658;BME280;13517;59.320;18.042;2022-11-20T00:51:01;101203.28;;;-1.05;100.00
25658;BME280;13517;59.320;18.042;2022-11-20T00:53:27;101206.81;;;-1.04;100.00
25658;BME280;13517;59.320;18.042;2022-11-20T00:56:02;101231.53;;;-0.99;100.00
25658;BME280;13517;59.320;18.042;2022-11-20T00:58:34;101210.41;;;-1.08;100.00
25658;BME280;13517;59.320;18.042;2022-11-20T01:01:02;101206.75;;;-0.98;100.00
25658;BME280;13517;59.320;18.042;2022-11-20T01:03:31;101225.31;;;-0.95;100.00
25658;BME280;13517;59.320;18.042;2022-11-20T01:06:07;101178.59;;;-1.12;100.00
25658;BME280;13517;59.320;18.042;2022-11-20T01:08:35;101204.94;;;-0.93;100.00
25658;BME280;13517;59.320;18.042;2022-11-20T01:11:13;101180.34;;;-1.07;100.00
25658;BME280;13517;59.320;18.042;2022-11-20T01:13:39;101182.09;;;-1.06;100.00
25658;BME280;13517;59.320;18.042;2022-11-20T01:16:20;101197.94;;;-0.99;100.00
25658;BME280;13517;59.320;18.042;2022-11-20T01:18:48;101192.66;;;-1.02;100.00
25658;BME280;13517;59.320;18.042;2022-11-20T01:21:19;101189.09;;;-0.98;100.00
25658;BME280;13517;59.320;18.042;2022-11-20T01:23:46;101184.63;;;-0.96;100.00
25658;BME280;13517;59.320;18.042;2022-11-20T01:26:23;101209.31;;;-0.87;100.00
25658;BME280;13517;59.320;18.042;2022-11-20T01:28:49;101193.44;;;-0.90;100.00
25658;BME280;13517;59.320;18.042;2022-11-20T01:31:26;101183.69;;;-0.88;100.00
25658;BME280;13517;59.320;18.042;2022-11-20T01:33:54;101192.53;;;-0.92;100.00
25658;BME280;13517;59.320;18.042;2022-11-20T01:36:22;101176.69;;;-0.96;100.00
25658;BME280;13517;59.320;18.042;2022-11-20T01:38:51;101163.47;;;-0.99;100.00
25658;BME280;13517;59.320;18.042;2022-11-20T01:41:16;101168.69;;;-0.92;100.00
25658;BME280;13517;59.320;18.042;2022-11-20T01:44:01;101175.78;;;-0.94;100.00
25658;BME280;13517;59.320;18.042;2022-11-20T01:46:27;101170.53;;;-1.01;100.00
25658;BME280;13517;59.320;18.042;2022-11-20T01:48:59;101158.97;;;-0.93;100.00
25658;BME280;13517;59.320;18.042;2022-11-20T01:54:01;101160.72;;;-0.89;100.00
25658;BME280;13517;59.320;18.042;2022-11-20T01:56:30;101157.16;;;-0.90;100.00
25658;BME280;13517;59.320;18.042;2022-11-20T01:58:58;101157.16;;;-0.90;100.00
25658;BME280;13517;59.320;18.042;2022-11-20T02:01:26;101144.00;;;-0.98;100.00
25658;BME280;13517;59.320;18.042;2022-11-20T02:03:51;101115.78;;;-1.08;100.00
25658;BME280;13517;59.320;18.042;2022-11-20T02:06:53;101170.47;;;-0.91;100.00
25658;BME280;13517;59.320;18.042;2022-11-20T02:09:20;101138.66;;;-0.94;100.00
25658;BME280;13517;59.320;18.042;2022-11-20T02:11:46;101124.50;;;-0.93;100.00
25658;BME280;13517;59.320;18.042;2022-11-20T02:14:11;101098.97;;;-1.02;100.00
25658;BME280;13517;59.320;18.042;2022-11-20T02:16:40;101107.59;;;-0.85;100.00
25658;BME280;13517;59.320;18.042;2022-11-20T02:19:22;101120.91;;;-0.89;100.00
25658;BME280;13517;59.320;18.042;2022-11-20T02:24:29;101119.22;;;-0.97;100.00
25658;BME280;13517;59.320;18.042;2022-11-20T02:27:01;101105.06;;;-0.96;100.00
25658;BME280;13517;59.320;18.042;2022-11-20T02:32:17;101111.22;;;-0.92;100.00
25658;BME280;13517;59.320;18.042;2022-11-20T02:34:42;101105.00;;;-0.89;100.00
25658;BME280;13517;59.320;18.042;2022-11-20T02:37:07;101067.31;;;-1.19;100.00
25658;BME280;13517;59.320;18.042;2022-11-20T02:39:33;101106.94;;;-1.04;100.00
25658;BME280;13517;59.320;18.042;2022-11-20T02:42:00;101073.34;;;-1.05;100.00
25658;BME280;13517;59.320;18.042;2022-11-20T02:44:26;101067.28;;;-1.15;100.00
25658;BME280;13517;59.320;18.042;2022-11-20T02:46:51;101073.19;;;-0.92;100.00
25658;BME280;13517;59.320;18.042;2022-11-20T02:49:17;101100.63;;;-0.93;100.00
25658;BME280;13517;59.320;18.042;2022-11-20T02:51:42;101092.66;;;-0.93;100.00
25658;BME280;13517;59.320;18.042;2022-11-20T02:54:07;101078.63;;;-1.02;100.00
25658;BME280;13517;59.320;18.042;2022-11-20T02:56:33;101028.47;;;-1.22;100.00
25658;BME280;13517;59.320;18.042;2022-11-20T02:58:58;101037.22;;;-1.15;100.00
25658;BME280;13517;59.320;18.042;2022-11-20T03:01:24;101081.19;;;-0.94;100.00
25658;BME280;13517;59.320;18.042;2022-11-20T03:03:49;101027.63;;;-1.27;100.00
25658;BME280;13517;59.320;18.042;2022-11-20T03:06:18;101060.81;;;-0.90;100.00
25658;BME280;13517;59.320;18.042;2022-11-20T03:08:43;101066.25;;;-1.03;100.00
25658;BME280;13517;59.320;18.042;2022-11-20T03:11:10;101031.00;;;-1.11;100.00
25658;BME280;13517;59.320;18.042;2022-11-20T03:13:36;101025.81;;;-1.20;100.00
25658;BME280;13517;59.320;18.042;2022-11-20T03:16:10;101072.41;;;-0.99;100.00
25658;BME280;13517;59.320;18.042;2022-11-20T03:18:35;101060.03;;;-1.02;100.00
25658;BME280;13517;59.320;18.042;2022-11-20T03:21:01;101066.19;;;-1.00;100.00
25658;BME280;13517;59.320;18.042;2022-11-20T03:23:29;101034.53;;;-1.12;100.00
25658;BME280;13517;59.320;18.042;2022-11-20T03:25:55;101031.09;;;-1.20;100.00
25658;BME280;13517;59.320;18.042;2022-11-20T03:28:20;101055.56;;;-0.97;100.00
25658;BME280;13517;59.320;18.042;2022-11-20T03:30:45;101047.56;;;-0.92;100.00
25658;BME280;13517;59.320;18.042;2022-11-20T03:33:11;100998.22;;;-1.07;100.00
25658;BME280;13517;59.320;18.042;2022-11-20T03:35:36;101049.38;;;-0.96;100.00
25658;BME280;13517;59.320;18.042;2022-11-20T03:38:01;101052.03;;;-0.96;100.00
25658;BME280;13517;59.320;18.042;2022-11-20T03:40:27;101015.03;;;-1.06;100.00
25658;BME280;13517;59.320;18.042;2022-11-20T03:42:52;101008.88;;;-1.12;100.00
25658;BME280;13517;59.320;18.042;2022-11-20T03:45:18;100997.34;;;-1.06;100.00
25658;BME280;13517;59.320;18.042;2022-11-20T03:47:44;101030.84;;;-0.99;100.00
25658;BME280;13517;59.320;18.042;2022-11-20T03:50:12;101041.41;;;-0.96;100.00
25658;BME280;13517;59.320;18.042;2022-11-20T03:52:38;101037.88;;;-0.94;100.00
25658;BME280;13517;59.320;18.042;2022-11-20T03:55:05;101008.88;;;-1.12;100.00
25658;BME280;13517;59.320;18.042;2022-11-20T03:57:30;101006.09;;;-1.01;100.00
25658;BME280;13517;59.320;18.042;2022-11-20T03:59:56;100977.13;;;-1.13;100.00
25658;BME280;13517;59.320;18.042;2022-11-20T04:02:21;101013.09;;;-0.93;100.00
25658;BME280;13517;59.320;18.042;2022-11-20T04:04:47;101001.72;;;-1.03;100.00
25658;BME280;13517;59.320;18.042;2022-11-20T04:07:12;100994.59;;;-1.00;100.00
25658;BME280;13517;59.320;18.042;2022-11-20T04:09:37;101006.03;;;-0.94;100.00
25658;BME280;13517;59.320;18.042;2022-11-20T04:12:03;100992.91;;;-1.04;100.00
25658;BME280;13517;59.320;18.042;2022-11-20T04:14:28;100970.00;;;-1.10;100.00
25658;BME280;13517;59.320;18.042;2022-11-20T04:16:54;100995.44;;;-0.94;100.00
25658;BME280;13517;59.320;18.042;2022-11-20T04:19:19;100994.47;;;-0.89;100.00
25658;BME280;13517;59.320;18.042;2022-11-20T04:21:45;100967.09;;;-0.92;100.00
25658;BME280;13517;59.320;18.042;2022-11-20T04:24:10;100986.47;;;-0.84;100.00
25658;BME280;13517;59.320;18.042;2022-11-20T04:26:36;100968.06;;;-0.95;100.00
25658;BME280;13517;59.320;18.042;2022-11-20T04:29:02;100977.63;;;-0.86;100.00
25658;BME280;13517;59.320;18.042;2022-11-20T04:31:31;100967.09;;;-0.92;100.00
25658;BME280;13517;59.320;18.042;2022-11-20T04:34:05;100988.25;;;-0.86;100.00
25658;BME280;13517;59.320;18.042;2022-11-20T04:36:31;100968.91;;;-0.93;100.00
25658;BME280;13517;59.320;18.042;2022-11-20T04:38:58;100977.69;;;-0.88;100.00
25658;BME280;13517;59.320;18.042;2022-11-20T04:41:26;100966.25;;;-0.94;100.00
25658;BME280;13517;59.320;18.042;2022-11-20T04:43:54;100921.25;;;-1.01;100.00
25658;BME280;13517;59.320;18.042;2022-11-20T04:46:25;100957.25;;;-0.83;100.00
25658;BME280;13517;59.320;18.042;2022-11-20T04:48:51;100950.22;;;-0.85;100.00
25658;BME280;13517;59.320;18.042;2022-11-20T04:51:16;100923.22;;;-1.15;100.00
25658;BME280;13517;59.320;18.042;2022-11-20T04:53:42;100939.81;;;-1.01;100.00
25658;BME280;13517;59.320;18.042;2022-11-20T04:56:10;100962.59;;;-0.84;100.00
25658;BME280;13517;59.320;18.042;2022-11-20T04:58:36;100961.69;;;-0.81;100.00
25658;BME280;13517;59.320;18.042;2022-11-20T05:03:27;100946.78;;;-0.93;100.00
25658;BME280;13517;59.320;18.042;2022-11-20T05:05:53;100923.06;;;-1.03;100.00
25658;BME280;13517;59.320;18.042;2022-11-20T05:08:18;100899.25;;;-1.07;100.00
25658;BME280;13517;59.320;18.042;2022-11-20T05:10:43;100924.47;;;-0.77;100.00
25658;BME280;13517;59.320;18.042;2022-11-20T05:13:09;100944.78;;;-0.74;100.00
25658;BME280;13517;59.320;18.042;2022-11-20T05:15:34;100926.25;;;-0.77;100.00
25658;BME280;13517;59.320;18.042;2022-11-20T05:17:59;100928.03;;;-0.78;100.00
25658;BME280;13517;59.320;18.042;2022-11-20T05:20:25;100912.19;;;-0.84;100.00
25658;BME280;13517;59.320;18.042;2022-11-20T05:22:50;100911.31;;;-0.85;100.00
25658;BME280;13517;59.320;18.042;2022-11-20T05:25:16;100920.00;;;-0.73;100.00
25658;BME280;13517;59.320;18.042;2022-11-20T05:27:41;100911.16;;;-0.75;100.00
25658;BME280;13517;59.320;18.042;2022-11-20T05:30:07;100905.97;;;-0.81;100.00
25658;BME280;13517;59.320;18.042;2022-11-20T05:32:33;100911.13;;;-0.72;100.00
25658;BME280;13517;59.320;18.042;2022-11-20T05:34:58;100873.41;;;-0.91;100.00
25658;BME280;13517;59.320;18.042;2022-11-20T05:37:23;100870.94;;;-1.04;100.00
25658;BME280;13517;59.320;18.042;2022-11-20T05:39:49;100899.94;;;-0.91;100.00
25658;BME280;13517;59.320;18.042;2022-11-20T05:42:14;100899.78;;;-0.80;100.00
25658;BME280;13517;59.320;18.042;2022-11-20T05:44:56;100868.94;;;-0.88;100.00
25658;BME280;13517;59.320;18.042;2022-11-20T05:47:21;100894.41;;;-0.79;100.00
25658;BME280;13517;59.320;18.042;2022-11-20T05:49:46;100892.72;;;-0.81;100.00
25658;BME280;13517;59.320;18.042;2022-11-20T05:52:12;100885.69;;;-0.87;100.00
25658;BME280;13517;59.320;18.042;2022-11-20T05:54:37;100892.75;;;-0.85;100.00
25658;BME280;13517;59.320;18.042;2022-11-20T05:57:03;100879.56;;;-0.89;100.00
25658;BME280;13517;59.320;18.042;2022-11-20T05:59:28;100882.22;;;-0.89;100.00
25658;BME280;13517;59.320;18.042;2022-11-20T06:01:53;100882.22;;;-0.89;100.00
25658;BME280;13517;59.320;18.042;2022-11-20T06:04:19;100889.19;;;-0.82;100.00
25658;BME280;13517;59.320;18.042;2022-11-20T06:06:44;100875.16;;;-0.90;100.00
25658;BME280;13517;59.320;18.042;2022-11-20T06:09:10;100864.50;;;-0.89;100.00
25658;BME280;13517;59.320;18.042;2022-11-20T06:11:35;100863.72;;;-0.94;100.00
25658;BME280;13517;59.320;18.042;2022-11-20T06:14:01;100870.91;;;-1.02;100.00
25658;BME280;13517;59.320;18.042;2022-11-20T06:16:26;100875.16;;;-0.92;100.00
25658;BME280;13517;59.320;18.042;2022-11-20T06:18:51;100871.78;;;-1.02;100.00
25658;BME280;13517;59.320;18.042;2022-11-20T06:21:21;100898.03;;;-0.83;100.00
25658;BME280;13517;59.320;18.042;2022-11-20T06:23:47;100875.06;;;-0.84;100.00
25658;BME280;13517;59.320;18.042;2022-11-20T06:26:16;100881.28;;;-0.87;100.00
25658;BME280;13517;59.320;18.042;2022-11-20T06:28:41;100874.25;;;-0.89;100.00
25658;BME280;13517;59.320;18.042;2022-11-20T06:31:09;100883.88;;;-0.82;100.00
25658;BME280;13517;59.320;18.042;2022-11-20T06:33:35;100836.47;;;-1.07;100.00
25658;BME280;13517;59.320;18.042;2022-11-20T06:36:01;100861.97;;;-0.95;100.00
25658;BME280;13517;59.320;18.042;2022-11-20T06:38:27;100872.34;;;-0.79;100.00
25658;BME280;13517;59.320;18.042;2022-11-20T06:40:53;100837.97;;;-0.87;100.00
25658;BME280;13517;59.320;18.042;2022-11-20T06:43:18;100860.16;;;-0.91;100.00
25658;BME280;13517;59.320;18.042;2022-11-20T06:45:44;100838.13;;;-1.00;100.00
25658;BME280;13517;59.320;18.042;2022-11-20T06:48:09;100845.06;;;-0.89;100.00
25658;BME280;13517;59.320;18.042;2022-11-20T06:50:38;100865.22;;;-0.77;100.00
25658;BME280;13517;59.320;18.042;2022-11-20T06:53:04;100858.16;;;-0.78;100.00
25658;BME280;13517;59.320;18.042;2022-11-20T06:55:31;100851.94;;;-0.76;100.00
25658;BME280;13517;59.320;18.042;2022-11-20T06:57:56;100834.22;;;-0.74;100.00
25658;BME280;13517;59.320;18.042;2022-11-20T07:00:22;100824.94;;;-1.01;100.00
25658;BME280;13517;59.320;18.042;2022-11-20T07:02:47;100845.00;;;-0.85;100.00
25658;BME280;13517;59.320;18.042;2022-11-20T07:05:13;100876.66;;;-0.74;100.00
25658;BME280;13517;59.320;18.042;2022-11-20T07:07:38;100866.13;;;-0.77;100.00
25658;BME280;13517;59.320;18.042;2022-11-20T07:10:04;100823.03;;;-0.93;100.00
25658;BME280;13517;59.320;18.042;2022-11-20T07:12:30;100862.50;;;-0.73;100.00
25658;BME280;13517;59.320;18.042;2022-11-20T07:14:55;100846.56;;;-0.70;100.00
25658;BME280;13517;59.320;18.042;2022-11-20T07:17:21;100851.84;;;-0.70;100.00
25658;BME280;13517;59.320;18.042;2022-11-20T07:19:46;100841.38;;;-0.79;100.00
25658;BME280;13517;59.320;18.042;2022-11-20T07:22:12;100840.41;;;-0.73;100.00
25658;BME280;13517;59.320;18.042;2022-11-20T07:24:38;100817.38;;;-0.71;100.00
25658;BME280;13517;59.320;18.042;2022-11-20T07:27:04;100813.91;;;-0.75;100.00
25658;BME280;13517;59.320;18.042;2022-11-20T07:29:30;100810.44;;;-0.78;100.00
25658;BME280;13517;59.320;18.042;2022-11-20T07:31:55;100835.00;;;-0.67;100.00
25658;BME280;13517;59.320;18.042;2022-11-20T07:34:22;100828.06;;;-0.76;100.00
25658;BME280;13517;59.320;18.042;2022-11-20T07:36:47;100781.47;;;-0.92;100.00
25658;BME280;13517;59.320;18.042;2022-11-20T07:39:13;100763.03;;;-0.99;100.00
25658;BME280;13517;59.320;18.042;2022-11-20T07:41:38;100773.38;;;-0.85;100.00
25658;BME280;13517;59.320;18.042;2022-11-20T07:44:03;100819.91;;;-0.63;100.00
25658;BME280;13517;59.320;18.042;2022-11-20T07:46:29;100789.97;;;-0.72;100.00
25658;BME280;13517;59.320;18.042;2022-11-20T07:48:54;100799.63;;;-0.66;100.00
25658;BME280;13517;59.320;18.042;2022-11-20T07:51:20;100785.56;;;-0.73;100.00
25658;BME280;13517;59.320;18.042;2022-11-20T07:53:45;100782.91;;;-0.73;100.00
25658;BME280;13517;59.320;18.042;2022-11-20T07:56:10;100821.50;;;-0.53;100.00
25658;BME280;13517;59.320;18.042;2022-11-20T07:58:36;100810.06;;;-0.57;100.00
25658;BME280;13517;59.320;18.042;2022-11-20T08:01:06;100807.44;;;-0.58;100.00
25658;BME280;13517;59.320;18.042;2022-11-20T08:03:32;100808.31;;;-0.58;100.00
25658;BME280;13517;59.320;18.042;2022-11-20T08:06:01;100768.03;;;-0.81;100.00
25658;BME280;13517;59.320;18.042;2022-11-20T08:08:27;100796.78;;;-0.55;100.00
25658;BME280;13517;59.320;18.042;2022-11-20T08:10:53;100771.28;;;-0.65;100.00
25658;BME280;13517;59.320;18.042;2022-11-20T08:13:38;100773.94;;;-0.65;100.00
25658;BME280;13517;59.320;18.042;2022-11-20T08:16:22;100783.59;;;-0.60;100.00
25658;BME280;13517;59.320;18.042;2022-11-20T08:18:47;100774.66;;;-0.56;100.00
25658;BME280;13517;59.320;18.042;2022-11-20T08:21:13;100773.84;;;-0.59;100.00
25658;BME280;13517;59.320;18.042;2022-11-20T08:23:38;100744.09;;;-0.77;100.00
25658;BME280;13517;59.320;18.042;2022-11-20T08:26:03;100717.78;;;-0.89;100.00
25658;BME280;13517;59.320;18.042;2022-11-20T08:28:29;100737.78;;;-0.71;100.00
25658;BME280;13517;59.320;18.042;2022-11-20T08:30:59;100778.94;;;-0.47;100.00
25658;BME280;13517;59.320;18.042;2022-11-20T08:33:25;100740.25;;;-0.60;100.00
25658;BME280;13517;59.320;18.042;2022-11-20T08:35:50;100738.41;;;-0.57;100.00
25658;BME280;13517;59.320;18.042;2022-11-20T08:38:16;100714.72;;;-0.67;100.00
25658;BME280;13517;59.320;18.042;2022-11-20T08:40:41;100726.19;;;-0.65;100.00
25658;BME280;13517;59.320;18.042;2022-11-20T08:43:26;100728.69;;;-0.56;100.00
25658;BME280;13517;59.320;18.042;2022-11-20T08:45:52;100710.25;;;-0.65;100.00
25658;BME280;13517;59.320;18.042;2022-11-20T08:48:17;100749.63;;;-0.40;100.00
25658;BME280;13517;59.320;18.042;2022-11-20T08:50:42;100740.78;;;-0.43;100.00
25658;BME280;13517;59.320;18.042;2022-11-20T08:53:08;100740.66;;;-0.35;100.00
25658;BME280;13517;59.320;18.042;2022-11-20T08:55:33;100731.97;;;-0.43;100.00
25658;BME280;13517;59.320;18.042;2022-11-20T08:58:04;100715.25;;;-0.47;100.00
25658;BME280;13517;59.320;18.042;2022-11-20T09:00:29;100729.94;;;-0.30;100.00
25658;BME280;13517;59.320;18.042;2022-11-20T09:02:55;100749.41;;;-0.28;100.00
25658;BME280;13517;59.320;18.042;2022-11-20T09:05:20;100734.34;;;-0.28;100.00
25658;BME280;13517;59.320;18.042;2022-11-20T09:07:45;100681.34;;;-0.78;100.00
25658;BME280;13517;59.320;18.042;2022-11-20T09:10:11;100694.06;;;-0.50;100.00
25658;BME280;13517;59.320;18.042;2022-11-20T09:12:36;100705.53;;;-0.48;100.00
25658;BME280;13517;59.320;18.042;2022-11-20T09:15:02;100738.91;;;-0.34;100.00
25658;BME280;13517;59.320;18.042;2022-11-20T09:17:27;100699.19;;;-0.39;100.00
25658;BME280;13517;59.320;18.042;2022-11-20T09:19:53;100692.38;;;-0.54;100.00
25658;BME280;13517;59.320;18.042;2022-11-20T09:22:18;100705.56;;;-0.51;100.00
25658;BME280;13517;59.320;18.042;2022-11-20T09:24:43;100701.13;;;-0.49;100.00
25658;BME280;13517;59.320;18.042;2022-11-20T09:27:09;100636.41;;;-0.89;100.00
25658;BME280;13517;59.320;18.042;2022-11-20T09:29:34;100674.97;;;-0.69;100.00
25658;BME280;13517;59.320;18.042;2022-11-20T09:32:00;100711.69;;;-0.46;100.00
25658;BME280;13517;59.320;18.042;2022-11-20T09:34:25;100647.72;;;-0.79;100.00
25658;BME280;13517;59.320;18.042;2022-11-20T09:36:51;100691.50;;;-0.55;100.00
25658;BME280;13517;59.320;18.042;2022-11-20T09:39:16;100711.69;;;-0.46;100.00
25658;BME280;13517;59.320;18.042;2022-11-20T09:42:00;100665.34;;;-0.75;100.00
25658;BME280;13517;59.320;18.042;2022-11-20T09:44:51;100701.84;;;-0.40;100.00
25658;BME280;13517;59.320;18.042;2022-11-20T09:53:23;100693.69;;;-0.31;100.00
25658;BME280;13517;59.320;18.042;2022-11-20T09:55:51;100683.09;;;-0.31;100.00
25658;BME280;13517;59.320;18.042;2022-11-20T09:58:44;100688.38;;;-0.31;100.00
25658;BME280;13517;59.320;18.042;2022-11-20T10:01:16;100664.66;;;-0.39;100.00
25658;BME280;13517;59.320;18.042;2022-11-20T10:24:43;100650.38;;;-0.32;100.00
25658;BME280;13517;59.320;18.042;2022-11-20T10:29:36;100627.47;;;-0.37;100.00
25658;BME280;13517;59.320;18.042;2022-11-20T10:32:11;100617.91;;;-0.46;100.00
25658;BME280;13517;59.320;18.042;2022-11-20T10:37:25;100576.56;;;-0.57;100.00
25658;BME280;13517;59.320;18.042;2022-11-20T10:39:53;100626.41;;;-0.29;100.00
25658;BME280;13517;59.320;18.042;2022-11-20T10:47:45;100614.50;;;-0.51;100.00
25658;BME280;13517;59.320;18.042;2022-11-20T10:50:15;100624.00;;;-0.43;100.00
25658;BME280;13517;59.320;18.042;2022-11-20T10:52:56;100634.72;;;-0.47;100.00
25658;BME280;13517;59.320;18.042;2022-11-20T10:55:50;100617.16;;;-0.51;100.00
25658;BME280;13517;59.320;18.042;2022-11-20T11:01:05;100616.09;;;-0.44;100.00
25658;BME280;13517;59.320;18.042;2022-11-20T11:03:38;100588.09;;;-0.59;100.00
25658;BME280;13517;59.320;18.042;2022-11-20T11:06:11;100565.13;;;-0.60;100.00
25658;BME280;13517;59.320;18.042;2022-11-20T11:08:40;100568.50;;;-0.52;100.00
25658;BME280;13517;59.320;18.042;2022-11-20T11:11:20;100582.56;;;-0.48;100.00
25658;BME280;13517;59.320;18.042;2022-11-20T11:13:46;100576.09;;;-0.35;100.00
25658;BME280;13517;59.320;18.042;2022-11-20T11:16:24;100538.53;;;-0.57;100.00
25658;BME280;13517;59.320;18.042;2022-11-20T11:18:50;100586.69;;;-0.33;100.00
25658;BME280;13517;59.320;18.042;2022-11-20T11:21:26;100572.50;;;-0.32;100.00
25658;BME280;13517;59.320;18.042;2022-11-20T11:24:01;100536.66;;;-0.52;100.00
25658;BME280;13517;59.320;18.042;2022-11-20T11:26:27;100560.16;;;-0.35;100.00
25658;BME280;13517;59.320;18.042;2022-11-20T11:28:54;100572.41;;;-0.28;100.00
25658;BME280;13517;59.320;18.042;2022-11-20T11:31:28;100522.34;;;-0.46;100.00
25658;BME280;13517;59.320;18.042;2022-11-20T11:34:26;100554.81;;;-0.32;100.00
25658;BME280;13517;59.320;18.042;2022-11-20T11:37:01;100514.41;;;-0.46;100.00
25658;BME280;13517;59.320;18.042;2022-11-20T11:39:30;100513.47;;;-0.44;100.00
25658;BME280;13517;59.320;18.042;2022-11-20T11:41:57;100520.25;;;-0.30;100.00
25658;BME280;13517;59.320;18.042;2022-11-20T11:44:33;100522.16;;;-0.35;100.00
25658;BME280;13517;59.320;18.042;2022-11-20T11:53:12;100525.78;;;-0.39;100.00
25658;BME280;13517;59.320;18.042;2022-11-20T11:55:58;100516.78;;;-0.34;100.00
25658;BME280;13517;59.320;18.042;2022-11-20T11:58:44;100510.66;;;-0.36;100.00
25658;BME280;13517;59.320;18.042;2022-11-20T12:06:31;100501.84;;;-0.38;100.00
25658;BME280;13517;59.320;18.042;2022-11-20T12:09:07;100521.25;;;-0.36;100.00
25658;BME280;13517;59.320;18.042;2022-11-20T12:14:39;100485.31;;;-0.51;100.00
25658;BME280;13517;59.320;18.042;2022-11-20T12:17:10;100458.19;;;-0.64;100.00
25658;BME280;13517;59.320;18.042;2022-11-20T12:19:36;100487.13;;;-0.51;100.00
25658;BME280;13517;59.320;18.042;2022-11-20T12:25:02;100488.75;;;-0.46;100.00
25658;BME280;13517;59.320;18.042;2022-11-20T12:30:11;100488.88;;;-0.52;100.00
25658;BME280;13517;59.320;18.042;2022-11-20T12:35:57;100496.97;;;-0.58;100.00
25658;BME280;13517;59.320;18.042;2022-11-20T12:52:38;100460.59;;;-0.53;100.00
25658;BME280;13517;59.320;18.042;2022-11-20T12:58:29;100460.69;;;-0.56;100.00
25658;BME280;13517;59.320;18.042;2022-11-20T13:01:12;100445.81;;;-0.63;100.00
25658;BME280;13517;59.320;18.042;2022-11-20T13:06:51;100434.25;;;-0.61;100.00
25658;BME280;13517;59.320;18.042;2022-11-20T13:09:19;100444.66;;;-0.51;100.00
25658;BME280;13517;59.320;18.042;2022-11-20T13:12:31;100433.09;;;-0.49;100.00
25658;BME280;13517;59.320;18.042;2022-11-20T13:16:02;100434.78;;;-0.46;100.00
25658;BME280;13517;59.320;18.042;2022-11-20T13:18:04;100415.38;;;-0.48;100.00
25658;BME280;13517;59.320;18.042;2022-11-20T13:20:31;100426.66;;;-0.38;100.00
25658;BME280;13517;59.320;18.042;2022-11-20T13:22:58;100364.63;;;-0.71;100.00
25658;BME280;13517;59.320;18.042;2022-11-20T13:25:28;100418.63;;;-0.35;100.00
25658;BME280;13517;59.320;18.042;2022-11-20T13:27:55;100391.75;;;-0.59;100.00
25658;BME280;13517;59.320;18.042;2022-11-20T13:30:23;100414.28;;;-0.38;100.00
25658;BME280;13517;59.320;18.042;2022-11-20T13:32:56;100424.03;;;-0.40;100.00
25658;BME280;13517;59.320;18.042;2022-11-20T13:35:42;100409.00;;;-0.39;100.00
25658;BME280;13517;59.320;18.042;2022-11-20T13:38:13;100381.16;;;-0.59;100.00
25658;BME280;13517;59.320;18.042;2022-11-20T13:43:38;100341.69;;;-0.73;100.00
25658;BME280;13517;59.320;18.042;2022-11-20T13:46:07;100394.13;;;-0.47;100.00
25658;BME280;13517;59.320;18.042;2022-11-20T13:48:41;100393.22;;;-0.46;100.00
25658;BME280;13517;59.320;18.042;2022-11-20T13:53:52;100378.22;;;-0.48;100.00
25658;BME280;13517;59.320;18.042;2022-11-20T13:56:24;100370.38;;;-0.53;100.00
25658;BME280;13517;59.320;18.042;2022-11-20T13:59:04;100372.41;;;-0.64;100.00
25658;BME280;13517;59.320;18.042;2022-11-20T14:01:32;100313.75;;;-0.88;100.00
25658;BME280;13517;59.320;18.042;2022-11-20T14:04:05;100381.13;;;-0.58;100.00
25658;BME280;13517;59.320;18.042;2022-11-20T14:06:39;100327.09;;;-0.91;100.00
25658;BME280;13517;59.320;18.042;2022-11-20T14:09:13;100379.25;;;-0.54;100.00
25658;BME280;13517;59.320;18.042;2022-11-20T14:11:49;100310.97;;;-0.82;100.00
25658;BME280;13517;59.320;18.042;2022-11-20T14:14:25;100359.88;;;-0.56;100.00
25658;BME280;13517;59.320;18.042;2022-11-20T14:16:52;100337.09;;;-0.66;100.00
25658;BME280;13517;59.320;18.042;2022-11-20T14:21:48;100333.69;;;-0.72;100.00